createdAt,value
2019-04-03T00:00:24.371Z,101542.19
2019-04-03T00:02:55.535Z,101541.22
2019-04-03T00:05:26.635Z,101541.19
2019-04-03T00:07:57.604Z,101541.14
2019-04-03T00:10:28.661Z,101541.18
2019-04-03T00:12:59.716Z,101541.53
2019-04-03T00:15:30.633Z,101545.04
2019-04-03T00:18:01.941Z,101545.92
2019-04-03T00:20:32.854Z,101541.48
2019-04-03T00:23:03.947Z,101538.41
2019-04-03T00:25:34.948Z,101537.05
2019-04-03T00:28:06.077Z,101537.48
2019-04-03T00:30:38.051Z,101539.23
2019-04-03T00:33:09.109Z,101533.58
2019-04-03T00:35:40.160Z,101530.11
2019-04-03T00:38:11.314Z,101534.98
2019-04-03T00:40:42.197Z,101532.79
2019-04-03T00:43:13.167Z,101534.98
2019-04-03T00:45:44.087Z,101532.74
2019-04-03T00:48:15.218Z,101531.33
2019-04-03T00:50:46.141Z,101533.75
2019-04-03T00:53:17.105Z,101537.47
2019-04-03T00:55:48.093Z,101539.10
2019-04-03T00:58:39.911Z,101531.14
2019-04-03T01:01:12.044Z,101536.53
2019-04-03T01:03:43.114Z,101531.27
2019-04-03T01:06:13.988Z,101530.02
2019-04-03T01:08:45.041Z,101533.78
2019-04-03T01:11:17.143Z,101530.77
2019-04-03T01:13:48.243Z,101532.09
2019-04-03T01:16:19.212Z,101529.38
2019-04-03T01:18:50.280Z,101527.63
2019-04-03T01:21:21.259Z,101536.78
2019-04-03T01:23:52.386Z,101532.45
2019-04-03T01:26:23.362Z,101529.75
2019-04-03T01:28:54.378Z,101529.26
2019-04-03T01:31:25.361Z,101530.00
2019-04-03T01:33:56.313Z,101529.13
2019-04-03T01:36:27.304Z,101525.63
2019-04-03T01:38:58.354Z,101536.81
2019-04-03T01:41:29.286Z,101538.05
2019-04-03T01:44:01.431Z,101537.83
2019-04-03T01:46:32.380Z,101534.69
2019-04-03T01:49:03.380Z,101535.42
2019-04-03T01:51:34.235Z,101532.05
2019-04-03T01:54:05.358Z,101531.63
2019-04-03T01:56:36.422Z,101532.92
2019-04-03T01:59:07.506Z,101528.16
2019-04-03T02:01:39.232Z,101533.66
2019-04-03T02:04:13.015Z,101529.78
2019-04-03T02:06:44.351Z,101526.73
2019-04-03T02:09:16.062Z,101527.22
2019-04-03T02:11:47.630Z,101525.03
2019-04-03T02:14:21.586Z,101529.36
2019-04-03T02:16:53.499Z,101525.33
2019-04-03T02:19:26.101Z,101521.90
2019-04-03T02:21:58.511Z,101521.90
2019-04-03T02:24:31.815Z,101523.20
2019-04-03T02:27:03.492Z,101521.83
2019-04-03T02:29:34.539Z,101517.86
2019-04-03T02:32:05.438Z,101525.27
2019-04-03T02:34:37.711Z,101520.81
2019-04-03T02:37:08.808Z,101521.23
2019-04-03T02:39:40.137Z,101518.22
2019-04-03T02:42:11.117Z,101520.70
2019-04-03T02:44:42.022Z,101524.09
2019-04-03T02:47:13.011Z,101521.59
2019-04-03T02:49:44.089Z,101521.07
2019-04-03T02:52:14.966Z,101518.45
2019-04-03T02:54:46.046Z,101519.70
2019-04-03T02:57:18.184Z,101519.67
2019-04-03T02:59:49.842Z,101520.58
2019-04-03T03:02:21.739Z,101519.98
2019-04-03T03:04:54.667Z,101512.06
2019-04-03T03:07:25.698Z,101518.16
2019-04-03T03:09:56.985Z,101521.27
2019-04-03T03:12:28.740Z,101527.07
2019-04-03T03:14:59.814Z,101530.11
2019-04-03T03:17:30.732Z,101529.69
2019-04-03T03:20:06.547Z,101522.31
2019-04-03T03:22:37.909Z,101524.45
2019-04-03T03:25:09.355Z,101525.37
2019-04-03T03:27:42.083Z,101520.66
2019-04-03T03:30:33.211Z,101529.48
2019-04-03T03:32:46.057Z,101529.39
2019-04-03T03:35:25.982Z,101528.38
2019-04-03T03:37:50.817Z,101525.75
2019-04-03T03:40:21.709Z,101526.98
2019-04-03T03:42:52.642Z,101526.84
2019-04-03T03:45:23.682Z,101519.30
2019-04-03T03:47:54.660Z,101526.48
2019-04-03T03:50:25.929Z,101529.16
2019-04-03T03:52:57.199Z,101529.97
2019-04-03T03:55:28.654Z,101525.22
2019-04-03T03:57:59.932Z,101522.50
2019-04-03T04:00:30.944Z,101532.62
2019-04-03T04:03:02.987Z,101530.86
2019-04-03T04:05:34.352Z,101527.33
2019-04-03T04:08:09.353Z,101529.02
2019-04-03T04:10:37.999Z,101528.23
2019-04-03T04:13:13.608Z,101538.31
2019-04-03T04:15:41.669Z,101532.61
2019-04-03T04:18:15.031Z,101533.41
2019-04-03T04:20:45.776Z,101529.80
2019-04-03T04:23:16.896Z,101537.33
2019-04-03T04:25:47.842Z,101532.58
2019-04-03T04:28:19.288Z,101534.59
2019-04-03T04:30:50.473Z,101534.73
2019-04-03T04:33:21.390Z,101537.11
2019-04-03T04:35:52.973Z,101533.22
2019-04-03T04:38:24.822Z,101538.99
2019-04-03T04:40:56.969Z,101528.59
2019-04-03T04:43:29.015Z,101533.57
2019-04-03T04:46:01.076Z,101536.28
2019-04-03T04:48:32.200Z,101531.14
2019-04-03T04:51:03.218Z,101534.66
2019-04-03T04:53:34.199Z,101531.70
2019-04-03T04:56:06.502Z,101531.50
2019-04-03T04:58:38.292Z,101534.31
2019-04-03T05:01:09.163Z,101534.06
2019-04-03T05:03:41.150Z,101533.71
2019-04-03T05:06:12.225Z,101532.48
2019-04-03T05:08:43.163Z,101524.17
2019-04-03T05:11:14.184Z,101527.80
2019-04-03T05:13:46.876Z,101530.95
2019-04-03T05:16:20.173Z,101529.23
2019-04-03T05:18:50.534Z,101535.02
2019-04-03T05:21:22.305Z,101524.54
2019-04-03T05:23:55.686Z,101528.11
2019-04-03T05:26:26.320Z,101525.95
2019-04-03T05:28:57.813Z,101523.02
2019-04-03T05:31:32.153Z,101527.02
2019-04-03T05:34:03.064Z,101529.23
2019-04-03T05:36:34.127Z,101535.39
2019-04-03T05:39:07.344Z,101531.87
2019-04-03T05:41:38.363Z,101541.13
2019-04-03T05:44:12.153Z,101540.23
2019-04-03T05:46:43.191Z,101539.80
2019-04-03T05:49:14.314Z,101534.48
2019-04-03T05:51:45.502Z,101543.75
2019-04-03T05:54:16.419Z,101542.88
2019-04-03T05:56:47.650Z,101536.65
2019-04-03T05:59:19.246Z,101538.43
2019-04-03T06:01:50.218Z,101539.20
2019-04-03T06:04:22.025Z,101536.99
2019-04-03T06:06:53.067Z,101529.06
2019-04-03T06:09:24.009Z,101533.84
2019-04-03T06:11:54.959Z,101532.52
2019-04-03T06:14:25.918Z,101532.05
2019-04-03T06:16:57.281Z,101533.39
2019-04-03T06:19:28.354Z,101527.53
2019-04-03T06:21:59.404Z,101529.66
2019-04-03T06:24:30.353Z,101532.24
2019-04-03T06:27:01.309Z,101526.34
2019-04-03T06:29:32.449Z,101527.56
2019-04-03T06:32:05.779Z,101536.83
2019-04-03T06:34:38.389Z,101522.10
2019-04-03T06:37:09.145Z,101532.97
2019-04-03T06:39:40.167Z,101526.27
2019-04-03T06:42:13.017Z,101526.81
2019-04-03T06:44:45.510Z,101526.21
2019-04-03T06:47:16.577Z,101524.78
2019-04-03T06:49:47.562Z,101524.40
2019-04-03T06:52:20.957Z,101522.06
2019-04-03T06:54:51.124Z,101526.03
2019-04-03T06:57:22.080Z,101524.00
2019-04-03T06:59:53.413Z,101531.07
2019-04-03T07:02:27.289Z,101529.00
2019-04-03T07:04:57.952Z,101527.00
2019-04-03T07:07:34.198Z,101527.42
2019-04-03T07:10:03.752Z,101527.03
2019-04-03T07:12:34.386Z,101527.70
2019-04-03T07:15:06.902Z,101525.07
2019-04-03T07:17:38.161Z,101523.20
2019-04-03T07:20:14.492Z,101530.73
2019-04-03T07:22:41.988Z,101525.00
2019-04-03T07:25:12.805Z,101524.94
2019-04-03T07:27:43.907Z,101525.77
2019-04-03T07:30:16.959Z,101523.80
2019-04-03T07:32:48.076Z,101520.19
2019-04-03T07:35:18.983Z,101519.23
2019-04-03T07:37:51.054Z,101521.56
2019-04-03T07:40:22.376Z,101516.69
2019-04-03T07:42:56.285Z,101519.27
2019-04-03T07:45:26.900Z,101516.67
2019-04-03T07:47:57.928Z,101516.60
2019-04-03T07:50:28.670Z,101512.31
2019-04-03T07:52:59.760Z,101513.17
2019-04-03T07:55:30.733Z,101516.19
2019-04-03T07:58:01.898Z,101506.34
2019-04-03T08:00:32.790Z,101503.39
2019-04-03T08:03:03.736Z,101494.06
2019-04-03T08:05:35.562Z,101492.32
2019-04-03T08:08:06.844Z,101487.26
2019-04-03T08:10:37.937Z,101488.13
2019-04-03T08:13:09.283Z,101496.42
2019-04-03T08:15:40.204Z,101487.52
2019-04-03T08:18:11.208Z,101491.96
2019-04-03T08:20:42.087Z,101487.70
2019-04-03T08:23:13.237Z,101486.12
2019-04-03T08:25:47.182Z,101474.16
2019-04-03T08:28:17.001Z,101475.20
2019-04-03T08:30:48.014Z,101478.17
2019-04-03T08:33:25.279Z,101474.01
2019-04-03T08:35:51.892Z,101476.20
2019-04-03T08:38:22.902Z,101470.97
2019-04-03T08:40:53.834Z,101460.08
2019-04-03T08:43:24.740Z,101469.90
2019-04-03T08:45:55.745Z,101466.17
2019-04-03T08:48:26.595Z,101453.83
2019-04-03T08:50:58.417Z,101455.01
2019-04-03T08:53:30.211Z,101446.00
2019-04-03T08:56:01.469Z,101455.94
2019-04-03T08:58:32.678Z,101448.27
2019-04-03T09:01:04.849Z,101441.36
2019-04-03T09:03:36.602Z,101438.98
2019-04-03T09:06:08.377Z,101433.05
2019-04-03T09:08:39.482Z,101422.30
2019-04-03T09:11:10.813Z,101423.98
2019-04-03T09:13:41.737Z,101421.45
2019-04-03T09:16:12.766Z,101413.45
2019-04-03T09:18:43.695Z,101408.00
2019-04-03T09:21:15.577Z,101404.17
2019-04-03T09:23:47.118Z,101405.43
2019-04-03T09:26:18.011Z,101395.74
2019-04-03T09:28:49.185Z,101402.33
2019-04-03T09:31:20.771Z,101398.86
2019-04-03T09:33:51.760Z,101402.69
2019-04-03T09:36:22.588Z,101390.61
2019-04-03T09:38:53.410Z,101390.80
2019-04-03T09:41:24.328Z,101387.36
2019-04-03T09:43:55.561Z,101384.92
2019-04-03T09:46:26.834Z,101385.48
2019-04-03T09:48:59.386Z,101381.28
2019-04-03T09:51:30.575Z,101376.05
2019-04-03T09:54:01.626Z,101372.05
2019-04-03T09:56:32.642Z,101371.34
2019-04-03T09:59:04.457Z,101361.64
2019-04-03T10:01:36.343Z,101364.77
2019-04-03T10:04:07.335Z,101369.37
2019-04-03T10:06:39.520Z,101363.31
2019-04-03T10:09:12.019Z,101364.09
2019-04-03T10:11:43.402Z,101358.78
2019-04-03T10:14:15.430Z,101356.43
2019-04-03T10:16:46.517Z,101350.12
2019-04-03T10:19:17.465Z,101337.23
2019-04-03T10:21:50.060Z,101330.62
2019-04-03T10:24:21.138Z,101323.33
2019-04-03T10:26:51.987Z,101329.98
2019-04-03T10:29:24.098Z,101326.38
2019-04-03T10:31:56.051Z,101314.27
2019-04-03T10:34:28.345Z,101315.95
2019-04-03T10:36:59.403Z,101313.22
2019-04-03T10:39:30.452Z,101312.04
2019-04-03T10:42:01.724Z,101305.02
2019-04-03T10:44:33.204Z,101296.91
2019-04-03T10:47:04.163Z,101299.15
2019-04-03T10:49:35.067Z,101305.23
2019-04-03T10:52:06.300Z,101300.72
2019-04-03T10:54:38.483Z,101298.50
2019-04-03T10:57:09.709Z,101296.97
2019-04-03T10:59:40.722Z,101292.56
2019-04-03T11:02:11.985Z,101292.72
2019-04-03T11:04:44.166Z,101274.67
2019-04-03T11:07:15.977Z,101282.98
2019-04-03T11:09:47.070Z,101270.12
2019-04-03T11:12:19.090Z,101264.72
2019-04-03T11:14:50.386Z,101260.98
2019-04-03T11:17:21.526Z,101253.61
2019-04-03T11:19:52.763Z,101260.37
2019-04-03T11:22:23.720Z,101251.70
2019-04-03T11:24:55.186Z,101258.10
2019-04-03T11:27:40.851Z,101249.96
2019-04-03T11:29:59.035Z,101243.26
2019-04-03T11:32:30.011Z,101233.42
2019-04-03T11:35:02.036Z,101231.22
2019-04-03T11:37:33.831Z,101227.78
2019-04-03T11:40:07.355Z,101214.75
2019-04-03T11:42:38.328Z,101221.22
2019-04-03T11:45:09.299Z,101212.60
2019-04-03T11:47:40.410Z,101208.95
2019-04-03T11:50:11.309Z,101203.11
2019-04-03T11:52:42.402Z,101198.04
2019-04-03T11:55:13.463Z,101190.13
2019-04-03T11:57:47.427Z,101198.23
2019-04-03T12:00:24.587Z,101190.03
2019-04-03T12:02:55.739Z,101189.60
2019-04-03T12:05:27.075Z,101190.30
2019-04-03T12:07:58.956Z,101186.93
2019-04-03T12:10:30.011Z,101183.84
2019-04-03T12:13:03.626Z,101176.86
2019-04-03T12:15:34.738Z,101171.38
2019-04-03T12:18:06.436Z,101168.33
2019-04-03T12:20:41.190Z,101166.60
2019-04-03T12:23:10.286Z,101164.92
2019-04-03T12:25:41.473Z,101169.88
2019-04-03T12:28:12.606Z,101163.84
2019-04-03T12:30:43.706Z,101158.48
2019-04-03T12:33:14.683Z,101159.13
2019-04-03T12:35:46.222Z,101157.62
2019-04-03T12:38:17.258Z,101150.29
2019-04-03T12:40:48.245Z,101150.20
2019-04-03T12:43:20.283Z,101147.34
2019-04-03T12:45:51.248Z,101142.42
2019-04-03T12:48:22.225Z,101139.35
2019-04-03T12:50:54.779Z,101129.59
2019-04-03T12:53:25.956Z,101135.07
2019-04-03T12:55:58.306Z,101130.68
2019-04-03T12:58:45.721Z,101127.66
2019-04-03T13:01:17.683Z,101122.45
2019-04-03T13:03:49.483Z,101122.06
2019-04-03T13:06:20.445Z,101128.94
2019-04-03T13:08:52.740Z,101125.73
2019-04-03T13:11:24.337Z,101121.15
2019-04-03T13:13:55.450Z,101119.20
2019-04-03T13:16:26.776Z,101120.68
2019-04-03T13:18:57.775Z,101115.16
2019-04-03T13:21:28.877Z,101111.58
2019-04-03T13:23:59.926Z,101104.14
2019-04-03T13:26:31.039Z,101103.75
2019-04-03T13:29:02.264Z,101108.33
2019-04-03T13:31:33.390Z,101107.80
2019-04-03T13:34:04.497Z,101104.48
2019-04-03T13:36:35.711Z,101106.33
2019-04-03T13:39:07.568Z,101108.20
2019-04-03T13:41:39.942Z,101103.58
2019-04-03T13:44:11.330Z,101100.47
2019-04-03T13:46:42.433Z,101093.42
2019-04-03T13:49:15.177Z,101096.38
2019-04-03T13:51:46.476Z,101090.33
2019-04-03T13:54:17.217Z,101101.54
2019-04-03T13:56:48.131Z,101100.77
2019-04-03T13:59:19.150Z,101095.91
2019-04-03T14:01:50.154Z,101094.58
2019-04-03T14:04:22.860Z,101092.44
2019-04-03T14:06:53.745Z,101086.14
2019-04-03T14:09:25.572Z,101076.52
2019-04-03T14:11:56.873Z,101083.07
2019-04-03T14:14:27.787Z,101088.39
2019-04-03T14:16:58.801Z,101089.36
2019-04-03T14:19:41.499Z,101083.20
2019-04-03T14:22:03.470Z,101080.39
2019-04-03T14:24:41.436Z,101084.14
2019-04-03T14:27:17.436Z,101083.63
2019-04-03T14:29:39.797Z,101076.14
2019-04-03T14:32:13.572Z,101071.42
2019-04-03T14:34:43.416Z,101073.03
2019-04-03T14:37:14.396Z,101069.86
2019-04-03T14:39:45.417Z,101071.02
2019-04-03T14:42:16.390Z,101065.91
2019-04-03T14:44:47.505Z,101063.64
2019-04-03T14:47:20.149Z,101070.68
2019-04-03T14:49:51.139Z,101062.56
2019-04-03T14:52:22.218Z,101062.66
2019-04-03T14:54:53.975Z,101058.59
2019-04-03T14:57:29.602Z,101058.89
2019-04-03T15:00:05.094Z,101058.13
2019-04-03T15:02:34.850Z,101048.45
2019-04-03T15:05:07.419Z,101044.33
2019-04-03T15:07:39.123Z,101039.96
2019-04-03T15:10:10.872Z,101034.34
2019-04-03T15:12:42.260Z,101029.03
2019-04-03T15:15:13.219Z,101036.95
2019-04-03T15:17:44.471Z,101034.41
2019-04-03T15:20:17.929Z,101035.08
2019-04-03T15:22:48.371Z,101037.70
2019-04-03T15:25:20.688Z,101041.86
2019-04-03T15:27:51.830Z,101040.55
2019-04-03T15:30:24.915Z,101036.69
2019-04-03T15:32:55.871Z,101040.90
2019-04-03T15:35:26.916Z,101038.10
2019-04-03T15:37:58.230Z,101034.38
2019-04-03T15:40:29.825Z,101028.25
2019-04-03T15:43:01.464Z,101028.14
2019-04-03T15:45:32.475Z,101035.41
2019-04-03T15:48:03.645Z,101038.98
2019-04-03T15:50:37.710Z,101044.59
2019-04-03T15:53:07.399Z,101036.32
2019-04-03T15:55:39.455Z,101036.52
2019-04-03T15:58:10.597Z,101043.73
2019-04-03T16:00:42.856Z,101041.52
2019-04-03T16:03:17.684Z,101036.87
2019-04-03T16:05:48.120Z,101036.58
2019-04-03T16:08:19.678Z,101035.53
2019-04-03T16:10:51.692Z,101039.08
2019-04-03T16:13:22.783Z,101030.86
2019-04-03T16:15:56.212Z,101029.31
2019-04-03T16:18:26.540Z,101035.94
2019-04-03T16:20:57.459Z,101044.00
2019-04-03T16:23:28.589Z,101025.70
2019-04-03T16:25:59.770Z,101033.70
2019-04-03T16:28:33.392Z,101031.28
2019-04-03T16:31:03.770Z,101025.47
2019-04-03T16:33:35.804Z,101030.97
2019-04-03T16:36:07.523Z,101025.64
2019-04-03T16:38:38.468Z,101028.72
2019-04-03T16:41:10.866Z,101026.81
2019-04-03T16:43:42.413Z,101032.71
2019-04-03T16:46:17.835Z,101026.52
2019-04-03T16:48:49.932Z,101039.09
2019-04-03T16:51:22.387Z,101032.59
2019-04-03T16:53:54.353Z,101038.80
2019-04-03T16:56:25.665Z,101037.06
2019-04-03T16:58:59.585Z,101040.89
2019-04-03T17:01:29.387Z,101037.81
2019-04-03T17:04:02.880Z,101038.73
2019-04-03T17:06:34.152Z,101042.44
2019-04-03T17:09:07.885Z,101046.13
2019-04-03T17:11:43.539Z,101042.83
2019-04-03T17:14:14.814Z,101045.28
2019-04-03T17:16:46.969Z,101051.28
2019-04-03T17:19:18.842Z,101044.47
2019-04-03T17:21:50.385Z,101053.06
2019-04-03T17:24:21.484Z,101054.19
2019-04-03T17:26:57.371Z,101048.13
2019-04-03T17:29:24.973Z,101053.01
2019-04-03T17:31:58.136Z,101053.06
2019-04-03T17:34:29.058Z,101053.19
2019-04-03T17:37:01.450Z,101056.64
2019-04-03T17:39:33.912Z,101057.91
2019-04-03T17:42:06.771Z,101052.17
2019-04-03T17:44:38.404Z,101055.44
2019-04-03T17:47:09.781Z,101049.39
2019-04-03T17:49:40.842Z,101049.44
2019-04-03T17:52:11.763Z,101054.75
2019-04-03T17:54:42.708Z,101057.78
2019-04-03T17:57:14.174Z,101048.16
2019-04-03T17:59:46.981Z,101051.81
2019-04-03T18:02:17.960Z,101049.30
2019-04-03T18:04:51.170Z,101056.48
2019-04-03T18:07:21.601Z,101051.76
2019-04-03T18:09:52.529Z,101051.30
2019-04-03T18:12:24.365Z,101045.79
2019-04-03T18:14:55.731Z,101055.45
2019-04-03T18:17:28.197Z,101053.59
2019-04-03T18:19:59.329Z,101060.28
2019-04-03T18:22:30.237Z,101061.61
2019-04-03T18:25:01.327Z,101056.42
2019-04-03T18:27:33.525Z,101054.22
2019-04-03T18:30:11.823Z,101056.59
2019-04-03T18:32:45.514Z,101059.33
2019-04-03T18:35:15.077Z,101055.17
2019-04-03T18:37:46.083Z,101052.63
2019-04-03T18:40:16.992Z,101057.95
2019-04-03T18:42:50.182Z,101057.49
2019-04-03T18:45:25.470Z,101054.88
2019-04-03T18:47:53.254Z,101057.72
2019-04-03T18:50:24.363Z,101055.98
2019-04-03T18:52:55.541Z,101057.80
2019-04-03T18:55:26.666Z,101058.38
2019-04-03T18:57:57.684Z,101060.19
2019-04-03T19:00:30.447Z,101059.84
2019-04-03T19:03:01.444Z,101054.16
2019-04-03T19:05:32.588Z,101057.95
2019-04-03T19:08:12.914Z,101049.56
2019-04-03T19:10:36.335Z,101055.45
2019-04-03T19:13:08.247Z,101050.75
2019-04-03T19:15:39.322Z,101055.30
2019-04-03T19:18:19.423Z,101055.97
2019-04-03T19:20:43.067Z,101057.55
2019-04-03T19:23:14.103Z,101056.75
2019-04-03T19:25:45.864Z,101061.11
2019-04-03T19:28:16.855Z,101056.19
2019-04-03T19:30:47.884Z,101055.24
2019-04-03T19:33:18.933Z,101054.02
2019-04-03T19:35:49.957Z,101053.64
2019-04-03T19:38:20.920Z,101050.56
2019-04-03T19:40:51.937Z,101053.56
2019-04-03T19:43:22.965Z,101058.17
2019-04-03T19:45:53.996Z,101050.73
2019-04-03T19:48:25.645Z,101053.97
2019-04-03T19:50:57.347Z,101050.87
2019-04-03T19:53:28.371Z,101054.39
2019-04-03T19:55:59.465Z,101055.07
2019-04-03T19:58:30.398Z,101053.39
2019-04-03T20:01:03.597Z,101055.59
2019-04-03T20:03:34.285Z,101058.30
2019-04-03T20:06:06.279Z,101061.05
2019-04-03T20:08:37.364Z,101063.24
2019-04-03T20:11:08.464Z,101067.40
2019-04-03T20:13:40.442Z,101065.20
2019-04-03T20:16:11.537Z,101061.76
2019-04-03T20:18:42.478Z,101057.90
2019-04-03T20:21:15.241Z,101066.77
2019-04-03T20:23:48.515Z,101062.45
2019-04-03T20:26:20.381Z,101064.73
2019-04-03T20:28:51.277Z,101062.98
2019-04-03T20:31:22.247Z,101063.00
2019-04-03T20:33:53.294Z,101063.13
2019-04-03T20:36:24.291Z,101060.17
2019-04-03T20:38:55.942Z,101063.77
2019-04-03T20:41:28.093Z,101062.48
2019-04-03T20:43:59.061Z,101062.05
2019-04-03T20:46:30.193Z,101062.09
2019-04-03T20:49:03.152Z,101058.52
2019-04-03T20:51:35.481Z,101068.71
2019-04-03T20:54:06.710Z,101063.41
2019-04-03T20:56:37.883Z,101065.57
2019-04-03T20:59:11.149Z,101069.56
2019-04-03T21:01:41.636Z,101063.08
2019-04-03T21:04:12.985Z,101066.75
2019-04-03T21:06:45.257Z,101072.95
2019-04-03T21:09:16.366Z,101070.37
2019-04-03T21:11:47.306Z,101073.87
2019-04-03T21:14:19.414Z,101073.03
2019-04-03T21:16:50.470Z,101070.05
2019-04-03T21:19:22.008Z,101067.40
2019-04-03T21:21:54.403Z,101068.35
2019-04-03T21:24:25.313Z,101065.69
2019-04-03T21:26:56.386Z,101065.26
2019-04-03T21:29:27.299Z,101069.69
2019-04-03T21:31:58.374Z,101072.38
2019-04-03T21:34:31.009Z,101072.91
2019-04-03T21:37:02.041Z,101069.81
2019-04-03T21:39:33.873Z,101069.82
2019-04-03T21:42:05.122Z,101071.22
2019-04-03T21:44:36.026Z,101076.17
2019-04-03T21:47:06.949Z,101072.22
2019-04-03T21:49:37.932Z,101070.91
2019-04-03T21:52:08.859Z,101073.59
2019-04-03T21:54:39.731Z,101074.03
2019-04-03T21:57:10.706Z,101074.05
2019-04-03T21:59:42.239Z,101073.61
2019-04-03T22:02:14.022Z,101077.57
2019-04-03T22:04:46.052Z,101074.03
2019-04-03T22:07:17.131Z,101079.79
2019-04-03T22:09:48.109Z,101077.58
2019-04-03T22:12:19.111Z,101079.84
2019-04-03T22:14:50.864Z,101080.79
2019-04-03T22:17:22.462Z,101079.05
2019-04-03T22:19:53.481Z,101079.08
2019-04-03T22:22:24.699Z,101080.02
2019-04-03T22:24:55.625Z,101080.48
2019-04-03T22:27:26.557Z,101076.09
2019-04-03T22:29:57.501Z,101076.07
2019-04-03T22:32:28.416Z,101076.91
2019-04-03T22:35:00.933Z,101075.20
2019-04-03T22:37:33.248Z,101072.55
2019-04-03T22:40:05.803Z,101075.19
2019-04-03T22:42:36.722Z,101074.31
2019-04-03T22:45:07.699Z,101072.59
2019-04-03T22:47:38.639Z,101074.76
2019-04-03T22:50:10.008Z,101073.47
2019-04-03T22:52:41.048Z,101069.06
2019-04-03T22:55:12.978Z,101068.19
2019-04-03T22:57:45.573Z,101065.12
2019-04-03T23:00:16.506Z,101068.23
2019-04-03T23:02:47.524Z,101053.73
2019-04-03T23:05:18.518Z,101059.89
2019-04-03T23:07:52.043Z,101058.14
2019-04-03T23:10:23.672Z,101054.63
2019-04-03T23:12:56.226Z,101052.45
2019-04-03T23:15:28.139Z,101065.19
2019-04-03T23:17:59.299Z,101053.30
2019-04-03T23:20:30.217Z,101056.84
2019-04-03T23:23:01.203Z,101055.53
2019-04-03T23:25:32.088Z,101049.36
2019-04-03T23:28:03.680Z,101055.11
2019-04-03T23:30:34.808Z,101056.88
2019-04-03T23:33:05.747Z,101049.86
2019-04-03T23:35:36.640Z,101052.06
2019-04-03T23:38:07.661Z,101053.81
2019-04-03T23:40:38.532Z,101042.38
2019-04-03T23:43:09.505Z,101049.86
2019-04-03T23:45:43.572Z,101046.33
2019-04-03T23:48:13.321Z,101041.94
2019-04-03T23:50:44.384Z,101044.14
2019-04-03T23:53:15.385Z,101040.20
2019-04-03T23:55:46.288Z,101041.52
2019-04-03T23:58:17.244Z,101038.86
